createdAt,value
2022-09-02T00:02:09.387Z,101090.84
2022-09-02T00:05:11.164Z,101087.50
2022-09-02T00:08:13.389Z,101094.72
2022-09-02T00:11:19.002Z,101084.28
2022-09-02T00:14:25.213Z,101088.84
2022-09-02T00:17:27.001Z,101078.41
2022-09-02T00:20:30.100Z,101077.13
2022-09-02T00:23:32.132Z,101082.00
2022-09-02T00:26:33.916Z,101071.94
2022-09-02T00:29:35.562Z,101080.38
2022-09-02T00:32:38.640Z,101075.56
2022-09-02T00:35:40.382Z,101071.59
2022-09-02T00:38:42.104Z,101078.19
2022-09-02T00:41:44.745Z,101073.38
2022-09-02T00:44:46.637Z,101064.78
2022-09-02T00:47:51.921Z,101067.16
2022-09-02T00:50:53.734Z,101063.94
2022-09-02T00:53:56.081Z,101068.03
2022-09-02T00:57:00.320Z,101062.22
2022-09-02T01:00:17.398Z,101058.25
2022-09-02T01:03:21.956Z,101068.63
2022-09-02T01:06:27.198Z,101057.53
2022-09-02T01:09:29.137Z,101058.84
2022-09-02T01:12:31.660Z,101055.84
2022-09-02T01:15:37.374Z,101058.00
2022-09-02T01:18:47.554Z,101056.69
2022-09-02T01:21:51.959Z,101063.28
2022-09-02T01:24:56.319Z,101056.47
2022-09-02T01:28:04.354Z,101054.88
2022-09-02T01:31:07.633Z,101049.84
2022-09-02T01:34:11.335Z,101054.47
2022-09-02T01:37:14.013Z,101055.09
2022-09-02T01:40:18.308Z,101052.72
2022-09-02T01:43:24.019Z,101045.00
2022-09-02T01:46:25.752Z,101046.16
2022-09-02T01:49:27.686Z,101051.53
2022-09-02T01:52:30.043Z,101046.38
2022-09-02T01:55:33.534Z,101040.34
2022-09-02T01:58:36.524Z,101040.47
2022-09-02T02:01:38.429Z,101032.81
2022-09-02T02:04:40.392Z,101026.81
2022-09-02T02:07:45.935Z,101022.72
2022-09-02T02:10:48.082Z,101025.41
2022-09-02T02:13:50.168Z,101025.63
2022-09-02T02:16:51.928Z,101019.72
2022-09-02T02:19:53.592Z,101018.19
2022-09-02T02:22:55.580Z,101026.56
2022-09-02T02:25:57.355Z,101022.25
2022-09-02T02:28:59.113Z,101015.47
2022-09-02T02:32:02.499Z,101024.69
2022-09-02T02:35:05.757Z,101021.16
2022-09-02T02:38:10.292Z,101018.69
2022-09-02T02:41:16.215Z,101014.47
2022-09-02T02:44:18.779Z,101017.16
2022-09-02T02:47:21.101Z,101004.16
2022-09-02T02:50:23.844Z,101006.94
2022-09-02T02:53:25.953Z,101009.78
2022-09-02T02:56:30.904Z,101005.50
2022-09-02T02:59:32.894Z,101014.53
2022-09-02T03:02:35.143Z,101005.91
2022-09-02T03:05:39.389Z,101003.31
2022-09-02T03:08:41.958Z,101005.38
2022-09-02T03:11:43.677Z,100997.63
2022-09-02T03:14:46.419Z,100997.69
2022-09-02T03:17:49.666Z,100991.56
2022-09-02T03:20:51.999Z,100991.56
2022-09-02T03:23:54.184Z,100991.69
2022-09-02T03:26:55.960Z,100996.22
2022-09-02T03:29:57.798Z,100992.00
2022-09-02T03:33:04.123Z,100986.53
2022-09-02T03:36:07.739Z,100988.53
2022-09-02T03:39:12.105Z,100985.97
2022-09-02T03:42:19.455Z,100984.44
2022-09-02T03:45:24.520Z,100994.22
2022-09-02T03:48:26.312Z,100990.88
2022-09-02T03:51:28.444Z,100983.03
2022-09-02T03:54:30.760Z,100985.94
2022-09-02T03:57:32.801Z,100992.25
2022-09-02T04:00:36.281Z,100979.78
2022-09-02T04:03:39.299Z,100989.47
2022-09-02T04:06:41.123Z,100979.69
2022-09-02T04:09:46.586Z,100984.31
2022-09-02T04:12:50.524Z,100989.00
2022-09-02T04:15:52.718Z,100989.97
2022-09-02T04:19:02.011Z,100986.31
2022-09-02T04:22:04.360Z,100994.38
2022-09-02T04:25:08.785Z,100989.84
2022-09-02T04:28:13.148Z,100986.44
2022-09-02T04:31:18.676Z,100996.09
2022-09-02T04:34:21.034Z,100987.09
2022-09-02T04:37:26.431Z,100980.84
2022-09-02T04:40:30.132Z,100981.91
2022-09-02T04:43:38.334Z,100980.94
2022-09-02T04:46:42.229Z,100988.22
2022-09-02T04:49:50.931Z,100976.34
2022-09-02T04:52:57.330Z,100987.09
2022-09-02T05:01:23.059Z,100983.03
2022-09-02T05:08:56.033Z,100976.09
2022-09-02T05:12:19.028Z,100977.41
2022-09-02T05:15:31.112Z,100979.47
2022-09-02T05:18:36.192Z,100977.25
2022-09-02T05:21:42.748Z,100981.06
2022-09-02T05:24:50.394Z,100979.69
2022-09-02T05:27:52.208Z,100972.91
2022-09-02T05:30:54.865Z,100977.56
2022-09-02T05:33:57.205Z,100969.75
2022-09-02T05:36:58.976Z,100967.91
2022-09-02T05:40:05.658Z,100963.06
2022-09-02T05:43:09.390Z,100960.91
2022-09-02T05:46:17.653Z,100959.47
2022-09-02T05:49:22.094Z,100962.66
2022-09-02T05:52:29.332Z,100968.38
2022-09-02T05:55:31.302Z,100957.56
2022-09-02T06:08:26.667Z,100963.69
2022-09-02T06:11:53.748Z,100959.16
2022-09-02T06:14:56.057Z,100966.81
2022-09-02T06:17:59.907Z,100967.22
2022-09-02T06:21:04.590Z,100966.34
2022-09-02T06:24:13.712Z,100967.34
2022-09-02T06:27:18.468Z,100975.81
2022-09-02T06:30:23.279Z,100976.91
2022-09-02T06:33:25.171Z,100973.97
2022-09-02T06:36:30.114Z,100970.28
2022-09-02T06:39:35.955Z,100974.47
2022-09-02T06:42:39.153Z,100969.88
2022-09-02T06:45:51.405Z,100979.72
2022-09-02T06:48:53.223Z,100977.47
2022-09-02T06:51:57.588Z,100967.16
2022-09-02T06:55:09.951Z,100974.25
2022-09-02T06:58:43.135Z,100975.31
2022-09-02T07:01:46.416Z,100970.88
2022-09-02T07:05:09.781Z,100966.78
2022-09-02T07:08:12.141Z,100971.81
2022-09-02T07:11:23.602Z,100961.50
2022-09-02T07:14:28.777Z,100966.50
2022-09-02T07:17:30.734Z,100964.97
2022-09-02T07:20:38.794Z,100966.75
2022-09-02T07:23:41.243Z,100959.94
2022-09-02T07:26:45.638Z,100960.44
2022-09-02T07:29:49.867Z,100968.16
2022-09-02T07:32:52.920Z,100959.69
2022-09-02T07:35:57.020Z,100960.00
2022-09-02T07:39:02.256Z,100958.47
2022-09-02T07:42:07.520Z,100957.59
2022-09-02T07:45:13.101Z,100966.09
2022-09-02T07:48:17.405Z,100959.00
2022-09-02T07:51:20.363Z,100957.56
2022-09-02T07:54:25.364Z,100959.56
2022-09-02T07:57:31.995Z,100954.97
2022-09-02T08:00:34.467Z,100959.13
2022-09-02T08:03:45.030Z,100957.28
2022-09-02T08:06:47.279Z,100954.97
2022-09-02T08:09:49.197Z,100955.22
2022-09-02T08:12:53.728Z,100961.06
2022-09-02T08:15:57.802Z,100956.22
2022-09-02T08:18:59.593Z,100952.53
2022-09-02T08:22:06.533Z,100955.19
2022-09-02T08:25:10.934Z,100956.28
2022-09-02T08:28:14.654Z,100957.41
2022-09-02T08:31:21.833Z,100959.94
2022-09-02T08:34:23.935Z,100951.59
2022-09-02T08:37:27.842Z,100953.09
2022-09-02T08:40:45.042Z,100948.38
2022-09-02T08:43:53.405Z,100939.22
2022-09-02T08:47:01.312Z,100942.88
2022-09-02T08:50:14.032Z,100947.72
2022-09-02T08:53:28.064Z,100942.22
2022-09-02T08:56:31.494Z,100940.78
2022-09-02T08:59:33.497Z,100938.38
2022-09-02T09:02:46.717Z,100935.56
2022-09-02T09:06:14.506Z,100927.56
2022-09-02T09:09:38.252Z,100928.88
2022-09-02T09:12:42.216Z,100911.34
2022-09-02T09:16:17.327Z,100911.47
2022-09-02T09:19:34.342Z,100906.50
2022-09-02T09:22:40.820Z,100899.78
2022-09-02T09:25:44.246Z,100901.25
2022-09-02T09:28:49.102Z,100899.44
2022-09-02T09:31:57.686Z,100896.13
2022-09-02T09:35:26.630Z,100890.16
2022-09-02T09:38:36.761Z,100886.56
2022-09-02T09:42:00.278Z,100879.72
2022-09-02T09:45:26.141Z,100879.41
2022-09-02T09:48:42.097Z,100875.09
2022-09-02T09:52:04.317Z,100868.91
2022-09-02T09:55:25.307Z,100878.09
2022-09-02T09:58:32.918Z,100869.91
2022-09-02T10:01:35.734Z,100865.66
2022-09-02T10:04:43.428Z,100858.97
2022-09-02T10:07:54.242Z,100856.44
2022-09-02T10:11:06.323Z,100854.69
2022-09-02T10:14:11.927Z,100851.78
2022-09-02T10:17:22.837Z,100851.78
2022-09-02T10:21:15.033Z,100849.84
2022-09-02T10:24:36.185Z,100848.81
2022-09-02T10:28:04.133Z,100840.03
2022-09-02T10:31:31.172Z,100821.16
2022-09-02T10:34:32.782Z,100822.31
2022-09-02T10:37:53.447Z,100822.22
2022-09-02T10:41:21.477Z,100822.78
2022-09-02T10:44:45.447Z,100813.63
2022-09-02T10:48:23.781Z,100825.81
2022-09-02T10:51:47.350Z,100822.84
2022-09-02T10:55:16.538Z,100815.78
2022-09-02T10:58:26.308Z,100816.16
2022-09-02T11:01:35.650Z,100811.19
2022-09-02T11:05:21.160Z,100801.03
2022-09-02T11:08:38.457Z,100789.09
2022-09-02T11:11:48.857Z,100785.56
2022-09-02T11:15:03.384Z,100789.16
2022-09-02T11:21:37.065Z,100771.69
2022-09-02T11:24:55.791Z,100771.78
2022-09-02T11:28:25.890Z,100771.97
2022-09-02T11:31:53.180Z,100767.91
2022-09-02T11:34:58.422Z,100773.19
2022-09-02T11:38:15.699Z,100771.75
2022-09-02T11:41:43.757Z,100759.00
2022-09-02T11:44:56.817Z,100758.56
2022-09-02T11:48:22.883Z,100753.41
2022-09-02T11:52:01.863Z,100764.81
2022-09-02T11:55:14.275Z,100769.25
2022-09-02T11:58:32.151Z,100774.84
2022-09-02T12:02:00.403Z,100763.03
2022-09-02T12:05:32.009Z,100756.69
2022-09-02T12:08:36.978Z,100758.66
2022-09-02T12:11:41.699Z,100759.78
2022-09-02T12:14:47.165Z,100749.69
2022-09-02T12:17:51.872Z,100752.44
2022-09-02T12:21:06.094Z,100743.03
2022-09-02T12:24:19.136Z,100745.75
2022-09-02T12:27:26.870Z,100737.31
2022-09-02T12:30:58.194Z,100733.75
2022-09-02T12:34:02.737Z,100729.41
2022-09-02T12:37:04.496Z,100727.44
2022-09-02T12:40:14.609Z,100724.78
2022-09-02T12:43:27.126Z,100713.22
2022-09-02T12:46:45.217Z,100708.59
2022-09-02T12:50:06.597Z,100700.38
2022-09-02T12:53:32.425Z,100700.56
2022-09-02T12:56:34.183Z,100702.41
2022-09-02T12:59:38.518Z,100692.44
2022-09-02T13:03:01.813Z,100689.13
2022-09-02T13:06:18.438Z,100704.31
2022-09-02T13:09:33.365Z,100691.78
2022-09-02T13:12:38.076Z,100688.47
2022-09-02T13:16:15.496Z,100688.00
2022-09-02T13:19:36.391Z,100681.16
2022-09-02T13:23:09.494Z,100677.97
2022-09-02T13:26:48.368Z,100670.19
2022-09-02T13:30:03.111Z,100668.75
2022-09-02T13:33:10.671Z,100658.41
2022-09-02T13:36:24.487Z,100662.06
2022-09-02T13:39:30.688Z,100658.31
2022-09-02T13:42:33.161Z,100654.78
2022-09-02T13:45:36.022Z,100652.53
2022-09-02T13:48:40.265Z,100653.22
2022-09-02T13:51:42.469Z,100650.75
2022-09-02T13:54:52.763Z,100650.56
2022-09-02T13:57:59.001Z,100653.56
2022-09-02T14:01:24.013Z,100646.41
2022-09-02T14:04:27.124Z,100647.19
2022-09-02T14:07:44.088Z,100653.38
2022-09-02T14:10:48.314Z,100642.34
2022-09-02T14:13:51.084Z,100642.41
2022-09-02T14:16:52.909Z,100644.94
2022-09-02T14:20:14.857Z,100639.84
2022-09-02T14:23:17.090Z,100630.53
2022-09-02T14:26:46.849Z,100642.56
2022-09-02T14:30:00.901Z,100644.56
2022-09-02T14:33:25.898Z,100629.97
2022-09-02T14:36:36.653Z,100632.09
2022-09-02T14:40:00.286Z,100627.50
2022-09-02T14:43:05.251Z,100627.47
2022-09-02T14:46:07.640Z,100619.09
2022-09-02T14:49:17.613Z,100621.38
2022-09-02T14:52:25.497Z,100617.69
2022-09-02T14:55:45.424Z,100620.03
2022-09-02T14:58:49.004Z,100619.34
2022-09-02T15:01:53.341Z,100618.63
2022-09-02T15:04:56.119Z,100615.16
2022-09-02T15:07:57.876Z,100623.09
2022-09-02T15:11:01.123Z,100615.56
2022-09-02T15:14:02.808Z,100612.28
2022-09-02T15:17:08.738Z,100613.91
2022-09-02T15:20:11.286Z,100609.00
2022-09-02T15:23:12.923Z,100605.81
2022-09-02T15:26:15.524Z,100611.06
2022-09-02T15:29:18.786Z,100600.56
2022-09-02T15:32:20.488Z,100604.63
2022-09-02T15:35:22.168Z,100598.41
2022-09-02T15:38:23.867Z,100597.69
2022-09-02T15:41:27.539Z,100589.88
2022-09-02T15:44:31.218Z,100588.94
2022-09-02T15:47:35.168Z,100588.59
2022-09-02T15:50:36.922Z,100585.72
2022-09-02T15:53:39.002Z,100575.72
2022-09-02T15:56:43.253Z,100572.59
2022-09-02T15:59:44.881Z,100572.25
2022-09-02T16:02:47.507Z,100567.53
2022-09-02T16:05:49.158Z,100571.50
2022-09-02T16:08:53.850Z,100567.56
2022-09-02T16:11:58.338Z,100564.53
2022-09-02T16:15:00.008Z,100566.13
2022-09-02T16:18:02.658Z,100563.38
2022-09-02T16:21:05.529Z,100558.13
2022-09-02T16:24:08.728Z,100557.00
2022-09-02T16:27:10.416Z,100557.19
2022-09-02T16:30:12.252Z,100555.28
2022-09-02T16:33:16.563Z,100550.38
2022-09-02T16:36:19.058Z,100550.47
2022-09-02T16:39:21.121Z,100556.72
2022-09-02T16:42:24.699Z,100554.66
2022-09-02T16:45:26.645Z,100555.06
2022-09-02T16:48:31.028Z,100553.16
2022-09-02T16:51:33.455Z,100544.97
2022-09-02T16:54:37.472Z,100537.16
2022-09-02T16:57:42.373Z,100535.19
2022-09-02T17:00:47.044Z,100534.50
2022-09-02T17:03:49.033Z,100531.66
2022-09-02T17:06:50.728Z,100532.41
2022-09-02T17:09:52.386Z,100543.22
2022-09-02T17:12:55.739Z,100537.66
2022-09-02T17:15:57.428Z,100536.16
2022-09-02T17:18:59.528Z,100536.69
2022-09-02T17:22:01.348Z,100533.00
2022-09-02T17:25:03.022Z,100533.25
2022-09-02T17:28:04.674Z,100541.31
2022-09-02T17:31:17.773Z,100535.00
2022-09-02T17:34:19.456Z,100538.94
2022-09-02T17:37:22.036Z,100542.03
2022-09-02T17:40:42.160Z,100538.47
2022-09-02T17:43:43.974Z,100544.78
2022-09-02T17:46:45.890Z,100547.06
2022-09-02T17:49:51.302Z,100545.22
2022-09-02T17:52:52.910Z,100551.91
2022-09-02T17:59:35.311Z,100542.63
2022-09-02T18:02:40.441Z,100554.44
2022-09-02T18:05:58.197Z,100541.84
2022-09-02T18:09:04.338Z,100552.47
2022-09-02T18:12:08.194Z,100551.69
2022-09-02T18:15:16.024Z,100553.88
2022-09-02T18:18:19.276Z,100558.53
2022-09-02T18:21:46.655Z,100556.47
2022-09-02T18:25:04.323Z,100566.41
2022-09-02T18:28:32.983Z,100567.06
2022-09-02T18:32:03.609Z,100571.84
2022-09-02T18:35:21.772Z,100577.81
2022-09-02T18:38:54.703Z,100581.91
2022-09-02T18:42:32.261Z,100582.25
2022-09-02T18:45:44.806Z,100584.97
2022-09-02T18:48:51.757Z,100593.81
2022-09-02T18:52:05.287Z,100586.16
2022-09-02T18:55:17.237Z,100589.91
2022-09-02T18:58:34.879Z,100595.31
2022-09-02T19:01:56.458Z,100605.00
2022-09-02T19:05:01.821Z,100602.63
2022-09-02T19:08:35.126Z,100606.16
2022-09-02T19:11:38.900Z,100607.00
2022-09-02T19:14:41.096Z,100608.88
2022-09-02T19:17:42.957Z,100611.91
2022-09-02T19:20:44.725Z,100616.81
2022-09-02T19:23:48.491Z,100607.81
2022-09-02T19:26:57.284Z,100615.78
2022-09-02T19:30:20.336Z,100612.22
2022-09-02T19:33:22.397Z,100614.44
2022-09-02T19:36:31.153Z,100619.19
2022-09-02T19:39:36.564Z,100607.81
2022-09-02T19:42:38.348Z,100618.69
2022-09-02T19:45:40.399Z,100614.56
2022-09-02T19:48:42.157Z,100615.91
2022-09-02T19:51:44.136Z,100618.25
2022-09-02T19:54:46.368Z,100621.31
2022-09-02T19:57:48.122Z,100622.81
2022-09-02T20:00:49.832Z,100616.34
2022-09-02T20:03:51.564Z,100625.66
2022-09-02T20:06:53.507Z,100625.63
2022-09-02T20:09:55.316Z,100632.56
2022-09-02T20:12:58.704Z,100636.47
2022-09-02T20:16:01.394Z,100641.31
2022-09-02T20:19:03.739Z,100640.94
2022-09-02T20:22:05.459Z,100631.44
2022-09-02T20:25:07.867Z,100652.94
2022-09-02T20:28:23.885Z,100649.00
2022-09-02T20:31:50.155Z,100652.38
2022-09-02T20:35:36.663Z,100651.44
2022-09-02T20:39:03.719Z,100659.38
2022-09-02T20:42:26.425Z,100659.38
2022-09-02T20:45:39.035Z,100661.63
2022-09-02T20:48:59.503Z,100667.16
2022-09-02T20:52:04.534Z,100671.09
2022-09-02T20:55:21.835Z,100671.03
2022-09-02T20:58:58.977Z,100669.94
2022-09-02T21:02:02.038Z,100667.97
2022-09-02T21:05:12.100Z,100667.56
2022-09-02T21:08:24.443Z,100665.75
2022-09-02T21:11:36.920Z,100661.41
2022-09-02T21:14:45.594Z,100664.19
2022-09-02T21:18:14.204Z,100662.41
2022-09-02T21:22:03.383Z,100662.44
2022-09-02T21:25:20.064Z,100673.00
2022-09-02T21:28:43.934Z,100671.75
2022-09-02T21:32:15.491Z,100665.09
2022-09-02T21:35:23.237Z,100664.09
2022-09-02T21:38:56.470Z,100661.28
2022-09-02T21:42:28.573Z,100655.03
2022-09-02T21:45:53.604Z,100660.31
2022-09-02T21:49:13.304Z,100655.63
2022-09-02T21:52:57.011Z,100661.19
2022-09-02T21:56:24.064Z,100650.97
2022-09-02T21:59:34.669Z,100649.56
2022-09-02T22:03:08.665Z,100644.00
2022-09-02T22:06:22.332Z,100642.91
2022-09-02T22:09:32.921Z,100644.59
2022-09-02T22:12:40.015Z,100640.31
2022-09-02T22:15:58.313Z,100642.75
2022-09-02T22:19:05.259Z,100637.34
2022-09-02T22:22:13.460Z,100644.28
2022-09-02T22:25:16.508Z,100641.00
2022-09-02T22:28:37.342Z,100642.81
2022-09-02T22:31:42.706Z,100638.38
2022-09-02T22:35:10.620Z,100637.63
2022-09-02T22:38:26.693Z,100641.19
2022-09-02T22:41:31.270Z,100641.25
2022-09-02T22:44:58.767Z,100640.09
2022-09-02T22:48:24.657Z,100640.66
2022-09-02T22:51:50.052Z,100621.41
2022-09-02T22:54:52.337Z,100634.63
2022-09-02T22:58:48.254Z,100628.38
2022-09-02T23:02:05.878Z,100627.66
2022-09-02T23:05:30.555Z,100628.50
2022-09-02T23:08:35.580Z,100623.81
2022-09-02T23:11:52.544Z,100631.66
2022-09-02T23:15:22.738Z,100621.25
2022-09-02T23:18:53.258Z,100628.03
2022-09-02T23:22:00.652Z,100631.13
2022-09-02T23:25:56.041Z,100628.44
2022-09-02T23:29:19.877Z,100620.63
2022-09-02T23:33:02.669Z,100621.03
2022-09-02T23:36:25.120Z,100613.59
2022-09-02T23:39:29.829Z,100609.88
2022-09-02T23:42:31.546Z,100603.41
2022-09-02T23:45:34.769Z,100594.38
2022-09-02T23:49:04.657Z,100600.41
2022-09-02T23:52:16.793Z,100593.25
2022-09-02T23:55:44.333Z,100595.88
2022-09-02T23:59:25.130Z,100586.63
